Time;durP1;ratioP1;P1;durP2;ratioP2;P2;SDS_P1;SDS_P2;PMS_P1;PMS_P2;Temp;Humidity;BMP_temperature;BMP_pressure;BME280_temperature;BME280_humidity;BME280_pressure;Samples;Min_cycle;Max_cycle;Signal;HPM_P1;HPM_P2
2022/01/30 00:01:44;;;;;;;;;;;1.20;62.90;;;;;;5073468;28;19951;-21
2022/01/30 00:04:10;;;;;;;;;;;1.20;62.50;;;;;;5073459;28;19913;-20
2022/01/30 00:06:37;;;;;;;;;;;1.20;62.40;;;;;;5073390;28;19942;-21
2022/01/30 00:09:04;;;;;;;;;;;1.10;64.50;;;;;;5074191;28;19904;-20
2022/01/30 00:11:34;;;;;;;;;;;1.10;63.90;;;;;;5073445;28;19991;-21
2022/01/30 00:14:02;;;;;;;;;;;1.10;63.70;;;;;;5073735;28;19965;-21
2022/01/30 00:16:32;;;;;;;;;;;1.00;63.80;;;;;;5073466;28;19927;-20
2022/01/30 00:19:11;;;;;;;;;;;1.00;65.40;;;;;;5073375;28;19912;-20
2022/01/30 00:21:42;;;;;;;;;;;0.90;65.40;;;;;;5073318;28;19917;-21
2022/01/30 00:24:14;;;;;;;;;;;0.90;65.40;;;;;;5073705;28;19913;-21
2022/01/30 00:26:41;;;;;;;;;;;0.90;66.20;;;;;;5073575;28;19976;-20
2022/01/30 00:29:07;;;;;;;;;;;0.80;64.80;;;;;;5073215;28;19905;-20
2022/01/30 00:31:35;;;;;;;;;;;0.80;64.30;;;;;;5073200;28;19908;-21
2022/01/30 00:34:01;;;;;;;;;;;0.80;63.80;;;;;;5073163;28;19912;-20
2022/01/30 00:36:30;;;;;;;;;;;0.80;64.00;;;;;;5073157;28;19915;-20
2022/01/30 00:38:57;;;;;;;;;;;0.70;63.60;;;;;;5073383;28;19954;-20
2022/01/30 00:41:22;;;;;;;;;;;0.70;63.60;;;;;;5076750;28;19946;-20
2022/01/30 00:43:48;;;;;;;;;;;0.70;63.90;;;;;;5075694;28;20356;-20
2022/01/30 00:46:14;;;;;;;;;;;0.60;63.90;;;;;;5077190;28;19995;-21
2022/01/30 00:48:40;;;;;;;;;;;0.60;63.80;;;;;;5076913;28;19928;-20
2022/01/30 00:51:06;;;;;;;;;;;0.60;63.50;;;;;;5076756;28;19904;-20
2022/01/30 00:53:32;;;;;;;;;;;0.50;63.10;;;;;;5077079;28;19963;-20
2022/01/30 00:55:58;;;;;;;;;;;0.50;62.90;;;;;;5077115;28;19948;-20
2022/01/30 00:58:24;;;;;;;;;;;0.50;62.80;;;;;;5076584;28;19911;-21
2022/01/30 01:00:50;;;;;;;;;;;0.40;63.30;;;;;;5076940;28;19904;-20
2022/01/30 01:03:17;;;;;;;;;;;0.40;63.30;;;;;;5076564;28;20383;-20
2022/01/30 01:05:44;;;;;;;;;;;0.40;63.20;;;;;;5076568;28;19904;-20
2022/01/30 01:08:16;;;;;;;;;;;0.40;63.50;;;;;;5076537;28;19949;-20
2022/01/30 01:10:50;;;;;;;;;;;0.30;63.60;;;;;;5076515;28;19911;-20
2022/01/30 01:24:05;;;;;;;;;;;0.20;63.70;;;;;;5076296;28;19955;-20
2022/01/30 01:26:31;;;;;;;;;;;0.10;65.30;;;;;;5076375;28;19952;-21
2022/01/30 01:28:57;;;;;;;;;;;0.10;64.90;;;;;;5076178;28;20372;-20
2022/01/30 01:31:23;;;;;;;;;;;0.10;64.20;;;;;;5076481;28;19912;-20
2022/01/30 01:36:15;;;;;;;;;;;0.00;64.70;;;;;;5075798;28;19904;-21
2022/01/30 01:38:41;;;;;;;;;;;0.00;64.50;;;;;;5076060;28;19911;-21
2022/01/30 01:41:07;;;;;;;;;;;0.00;64.40;;;;;;5075967;28;19983;-20
2022/01/30 01:43:34;;;;;;;;;;;0.00;63.90;;;;;;5076019;28;19912;-20
2022/01/30 01:46:01;;;;;;;;;;;0.00;63.80;;;;;;5076188;28;19981;-21
2022/01/30 01:48:33;;;;;;;;;;;0.00;63.70;;;;;;5075981;28;19908;-20
2022/01/30 01:51:06;;;;;;;;;;;0.00;63.70;;;;;;5076524;28;19904;-20
2022/01/30 01:53:33;;;;;;;;;;;0.00;65.80;;;;;;5075803;28;19947;-20
2022/01/30 01:55:58;;;;;;;;;;;-0.10;64.60;;;;;;5075668;28;20317;-20
2022/01/30 01:58:25;;;;;;;;;;;-0.10;64.20;;;;;;5075391;28;19962;-20
2022/01/30 02:00:51;;;;;;;;;;;-0.10;64.20;;;;;;5075881;28;19905;-20
2022/01/30 02:03:18;;;;;;;;;;;-0.20;66.40;;;;;;5076091;28;20355;-21
2022/01/30 02:05:51;;;;;;;;;;;-0.20;65.50;;;;;;5075726;28;19904;-21
2022/01/30 02:11:08;;;;;;;;;;;-0.30;64.70;;;;;;5075518;28;19995;-20
2022/01/30 02:24:34;;;;;;;;;;;-0.40;65.10;;;;;;5075057;28;19919;-21
2022/01/30 02:27:01;;;;;;;;;;;-0.40;66.30;;;;;;5075134;28;20379;-20
2022/01/30 02:29:27;;;;;;;;;;;-0.40;65.20;;;;;;5075020;28;20306;-20
2022/01/30 02:31:56;;;;;;;;;;;-0.30;66.70;;;;;;5075010;28;20011;-20
2022/01/30 02:34:26;;;;;;;;;;;-0.30;65.40;;;;;;5074720;28;19904;-20
2022/01/30 02:36:53;;;;;;;;;;;-0.20;65.00;;;;;;5075098;28;19904;-20
2022/01/30 02:39:20;;;;;;;;;;;-0.20;65.50;;;;;;5074811;28;20387;-20
2022/01/30 02:41:46;;;;;;;;;;;-0.20;66.40;;;;;;5075086;28;19904;-20
2022/01/30 02:44:21;;;;;;;;;;;-0.20;65.50;;;;;;5074470;28;19919;-21
2022/01/30 02:46:50;;;;;;;;;;;-0.20;65.40;;;;;;5074722;28;19966;-20
2022/01/30 02:51:49;;;;;;;;;;;-0.30;65.10;;;;;;5073398;28;19904;-20
2022/01/30 02:54:15;;;;;;;;;;;-0.20;64.50;;;;;;5074716;28;19904;-20
2022/01/30 02:56:41;;;;;;;;;;;-0.30;64.50;;;;;;5074755;28;20459;-20
2022/01/30 02:59:07;;;;;;;;;;;-0.30;65.10;;;;;;5074357;28;19904;-20
2022/01/30 03:01:33;;;;;;;;;;;-0.30;65.70;;;;;;5074694;28;19910;-20
2022/01/30 03:04:00;;;;;;;;;;;-0.30;66.50;;;;;;5073980;28;19919;-20
2022/01/30 03:06:26;;;;;;;;;;;-0.40;65.90;;;;;;5073871;28;19957;-21
2022/01/30 03:08:52;;;;;;;;;;;-0.40;65.30;;;;;;5075080;28;19920;-20
2022/01/30 03:11:18;;;;;;;;;;;-0.40;66.00;;;;;;5074193;28;19908;-20
2022/01/30 03:13:43;;;;;;;;;;;-0.40;66.70;;;;;;5074463;28;19912;-19
2022/01/30 03:16:09;;;;;;;;;;;-0.50;65.70;;;;;;5074082;28;20383;-19
2022/01/30 03:18:36;;;;;;;;;;;-0.50;65.70;;;;;;5073851;28;19911;-20
2022/01/30 03:21:02;;;;;;;;;;;-0.50;66.50;;;;;;5073806;28;19916;-19
2022/01/30 03:23:29;;;;;;;;;;;-0.60;65.50;;;;;;5073871;28;19933;-22
2022/01/30 03:25:58;;;;;;;;;;;-0.60;67.90;;;;;;5073966;28;20337;-19
2022/01/30 03:28:25;;;;;;;;;;;-0.60;67.10;;;;;;5074013;28;19904;-20
2022/01/30 03:30:55;;;;;;;;;;;-0.70;66.10;;;;;;5074213;28;20319;-20
2022/01/30 03:33:21;;;;;;;;;;;-0.70;66.30;;;;;;5074227;28;19927;-20
2022/01/30 03:35:47;;;;;;;;;;;-0.70;66.20;;;;;;5073762;28;20505;-20
2022/01/30 03:38:14;;;;;;;;;;;-0.70;66.60;;;;;;5073580;28;19999;-21
2022/01/30 03:40:43;;;;;;;;;;;-0.70;68.20;;;;;;5074055;28;19999;-20
2022/01/30 03:43:08;;;;;;;;;;;-0.70;69.70;;;;;;5074495;28;19949;-20
2022/01/30 03:45:34;;;;;;;;;;;-0.70;69.80;;;;;;5074527;28;19908;-19
2022/01/30 03:48:00;;;;;;;;;;;-0.70;69.10;;;;;;5073672;28;19927;-20
2022/01/30 03:50:25;;;;;;;;;;;-0.60;69.20;;;;;;5073806;28;19904;-20
2022/01/30 03:52:51;;;;;;;;;;;-0.60;69.00;;;;;;5073523;28;19904;-20
2022/01/30 03:55:17;;;;;;;;;;;-0.60;68.90;;;;;;5073580;28;19904;-20
2022/01/30 03:57:42;;;;;;;;;;;-0.60;67.60;;;;;;5073807;28;19940;-20
2022/01/30 04:00:08;;;;;;;;;;;-0.60;68.80;;;;;;5073542;28;19904;-20
2022/01/30 04:02:34;;;;;;;;;;;-0.60;69.50;;;;;;5073551;28;19904;-19
2022/01/30 04:05:00;;;;;;;;;;;-0.60;68.40;;;;;;5072208;28;20378;-19
2022/01/30 04:07:26;;;;;;;;;;;-0.60;69.10;;;;;;5072203;28;19999;-19
2022/01/30 04:09:53;;;;;;;;;;;-0.60;68.90;;;;;;5073820;28;19940;-20
2022/01/30 04:12:19;;;;;;;;;;;-0.60;69.50;;;;;;5073519;28;19969;-20
2022/01/30 04:14:45;;;;;;;;;;;-0.60;68.90;;;;;;5074422;28;19905;-19
2022/01/30 04:17:13;;;;;;;;;;;-0.70;69.80;;;;;;5077972;28;19999;-20
2022/01/30 04:19:39;;;;;;;;;;;-0.70;69.60;;;;;;5077554;28;20027;-19
2022/01/30 04:22:05;;;;;;;;;;;-0.70;69.30;;;;;;5077740;28;19927;-19
2022/01/30 04:24:32;;;;;;;;;;;-0.70;68.70;;;;;;5077210;28;19962;-19
2022/01/30 04:26:57;;;;;;;;;;;-0.70;69.70;;;;;;5078020;28;20429;-19
2022/01/30 04:29:23;;;;;;;;;;;-0.80;68.70;;;;;;5077303;28;19904;-20
2022/01/30 04:31:50;;;;;;;;;;;-0.80;69.30;;;;;;5077282;28;20037;-19
2022/01/30 04:34:16;;;;;;;;;;;-0.80;68.60;;;;;;5077060;28;19960;-19
2022/01/30 04:36:44;;;;;;;;;;;-0.90;68.20;;;;;;5077441;28;19904;-18
2022/01/30 04:39:31;;;;;;;;;;;-0.90;69.40;;;;;;5077160;28;19943;-19
2022/01/30 04:53:10;;;;;;;;;;;-1.00;69.40;;;;;;5076888;28;19911;-19
2022/01/30 05:01:16;;;;;;;;;;;-1.10;71.60;;;;;;5074636;28;20441;-19
2022/01/30 05:03:57;;;;;;;;;;;-1.10;70.50;;;;;;5074603;28;19919;-19
2022/01/30 05:06:53;;;;;;;;;;;-1.10;70.10;;;;;;5074398;28;19947;-20
2022/01/30 05:09:15;;;;;;;;;;;-1.20;70.00;;;;;;5073871;28;19935;-19
2022/01/30 05:11:41;;;;;;;;;;;-1.10;69.10;;;;;;5074429;28;20355;-19
2022/01/30 05:14:07;;;;;;;;;;;-1.10;68.70;;;;;;5074387;28;20303;-19
2022/01/30 05:16:35;;;;;;;;;;;-1.10;69.10;;;;;;5074213;28;20367;-20
2022/01/30 05:19:01;;;;;;;;;;;-1.00;69.00;;;;;;5075058;28;19905;-20
2022/01/30 05:21:27;;;;;;;;;;;-1.00;70.60;;;;;;5074214;28;19955;-20
2022/01/30 05:23:54;;;;;;;;;;;-1.00;71.60;;;;;;5074149;28;19919;-19
2022/01/30 05:26:21;;;;;;;;;;;-0.90;69.80;;;;;;5073743;28;19904;-19
2022/01/30 05:28:47;;;;;;;;;;;-0.90;70.30;;;;;;5074158;28;19905;-19
2022/01/30 05:31:12;;;;;;;;;;;-0.90;69.60;;;;;;5058906;28;19904;-20
2022/01/30 05:33:38;;;;;;;;;;;-0.90;71.40;;;;;;5076111;28;20017;-19
2022/01/30 05:36:05;;;;;;;;;;;-0.90;71.20;;;;;;5076320;28;20364;-19
2022/01/30 05:38:31;;;;;;;;;;;-0.90;71.20;;;;;;5076102;28;20006;-19
2022/01/30 05:40:58;;;;;;;;;;;-0.90;70.20;;;;;;5076278;28;19904;-19
2022/01/30 05:43:27;;;;;;;;;;;-0.90;71.00;;;;;;5075888;28;19920;-19
2022/01/30 05:46:04;;;;;;;;;;;-0.90;70.90;;;;;;5076207;28;19904;-19
2022/01/30 05:48:30;;;;;;;;;;;-0.90;70.00;;;;;;5074486;28;20260;-19
2022/01/30 05:50:56;;;;;;;;;;;-0.90;69.90;;;;;;5075779;28;20378;-19
2022/01/30 05:53:22;;;;;;;;;;;-0.90;70.20;;;;;;5076521;28;19934;-19
2022/01/30 05:55:49;;;;;;;;;;;-0.90;70.00;;;;;;5076043;28;20279;-19
2022/01/30 05:58:15;;;;;;;;;;;-1.00;70.30;;;;;;5075550;28;19904;-20
2022/01/30 06:00:41;;;;;;;;;;;-1.00;70.00;;;;;;5076288;28;19905;-19
2022/01/30 06:03:06;;;;;;;;;;;-1.00;70.10;;;;;;5075826;28;19940;-19
2022/01/30 06:05:32;;;;;;;;;;;-1.00;70.10;;;;;;5075856;28;20383;-19
2022/01/30 06:08:08;;;;;;;;;;;-1.00;70.30;;;;;;5075528;28;20368;-19
2022/01/30 06:10:34;;;;;;;;;;;-1.10;70.80;;;;;;5075638;28;19911;-19
2022/01/30 06:13:00;;;;;;;;;;;-1.10;70.10;;;;;;5075510;28;20330;-19
2022/01/30 06:15:26;;;;;;;;;;;-1.10;71.90;;;;;;5075355;28;19911;-20
2022/01/30 06:17:52;;;;;;;;;;;-1.10;71.80;;;;;;5075297;28;20284;-19
2022/01/30 06:20:18;;;;;;;;;;;-1.20;71.60;;;;;;5074858;28;19920;-18
2022/01/30 06:22:44;;;;;;;;;;;-1.20;72.80;;;;;;5075166;28;19911;-19
2022/01/30 06:25:09;;;;;;;;;;;-1.20;71.30;;;;;;5075387;28;19952;-18
2022/01/30 06:27:36;;;;;;;;;;;-1.20;70.80;;;;;;5075427;28;19904;-19
2022/01/30 06:30:06;;;;;;;;;;;-1.10;70.80;;;;;;5075189;28;20283;-18
2022/01/30 06:32:32;;;;;;;;;;;-1.10;72.60;;;;;;5074723;28;20041;-19
2022/01/30 06:34:58;;;;;;;;;;;-1.10;71.50;;;;;;5075258;28;20010;-18
2022/01/30 06:37:24;;;;;;;;;;;-1.00;71.20;;;;;;5074035;28;20046;-19
2022/01/30 06:39:49;;;;;;;;;;;-1.00;70.70;;;;;;5074839;28;19944;-18
2022/01/30 06:42:15;;;;;;;;;;;-1.00;70.00;;;;;;5074930;28;19904;-20
2022/01/30 06:44:43;;;;;;;;;;;-1.00;69.40;;;;;;5073440;28;20319;-19
2022/01/30 06:47:10;;;;;;;;;;;-0.90;70.30;;;;;;5075032;28;19912;-19
2022/01/30 06:49:36;;;;;;;;;;;-1.00;69.80;;;;;;5073441;28;20342;-19
2022/01/30 06:52:02;;;;;;;;;;;-0.90;70.20;;;;;;5074859;28;19904;-19
2022/01/30 06:54:27;;;;;;;;;;;-0.90;69.30;;;;;;5073074;28;20387;-20
2022/01/30 06:56:53;;;;;;;;;;;-0.90;68.10;;;;;;5074828;28;19911;-19
2022/01/30 06:59:19;;;;;;;;;;;-1.00;67.70;;;;;;5074487;28;19961;-19
2022/01/30 07:01:45;;;;;;;;;;;-0.90;68.10;;;;;;5074709;28;19949;-19
2022/01/30 07:04:12;;;;;;;;;;;-0.90;67.80;;;;;;5073089;28;19912;-19
2022/01/30 07:06:38;;;;;;;;;;;-0.90;67.40;;;;;;5074473;28;20088;-20
2022/01/30 07:09:04;;;;;;;;;;;-0.90;67.40;;;;;;5074191;28;19904;-19
2022/01/30 07:11:29;;;;;;;;;;;-0.90;68.50;;;;;;5074291;28;19930;-19
2022/01/30 07:13:56;;;;;;;;;;;-0.90;67.60;;;;;;5074224;28;19950;-19
2022/01/30 07:16:21;;;;;;;;;;;-0.90;67.10;;;;;;5074277;28;19944;-19
2022/01/30 07:18:47;;;;;;;;;;;-0.90;67.00;;;;;;5074675;28;20407;-19
2022/01/30 07:21:13;;;;;;;;;;;-0.80;67.00;;;;;;5073819;28;19916;-19
2022/01/30 07:23:40;;;;;;;;;;;-0.80;67.20;;;;;;5074256;28;19923;-19
2022/01/30 07:26:07;;;;;;;;;;;-0.80;66.70;;;;;;5073970;28;19909;-19
2022/01/30 07:28:34;;;;;;;;;;;-0.70;66.70;;;;;;5073818;28;19921;-19
2022/01/30 07:30:59;;;;;;;;;;;-0.70;66.90;;;;;;5074365;28;19958;-19
2022/01/30 07:33:25;;;;;;;;;;;-0.60;66.80;;;;;;5074191;28;19955;-19
2022/01/30 07:35:53;;;;;;;;;;;-0.50;66.90;;;;;;5074085;28;20253;-19
2022/01/30 07:38:21;;;;;;;;;;;-0.40;66.80;;;;;;5073713;28;20381;-19
2022/01/30 07:40:47;;;;;;;;;;;-0.40;67.10;;;;;;5073795;28;20015;-19
2022/01/30 07:43:13;;;;;;;;;;;-0.20;67.20;;;;;;5072486;28;19943;-19
2022/01/30 07:45:39;;;;;;;;;;;-0.10;67.00;;;;;;5073669;28;19959;-20
2022/01/30 07:48:05;;;;;;;;;;;0.00;66.60;;;;;;5073748;28;19904;-19
2022/01/30 07:50:30;;;;;;;;;;;0.10;67.50;;;;;;5073663;28;19904;-20
2022/01/30 07:52:56;;;;;;;;;;;0.20;66.70;;;;;;5073625;28;20368;-19
2022/01/30 07:55:22;;;;;;;;;;;0.30;66.70;;;;;;5073787;28;19905;-20
2022/01/30 07:57:48;;;;;;;;;;;0.50;67.80;;;;;;5073585;28;19904;-19
2022/01/30 08:00:14;;;;;;;;;;;0.60;67.00;;;;;;5073327;28;19911;-19
2022/01/30 08:02:40;;;;;;;;;;;0.80;66.60;;;;;;5073534;28;19908;-19
2022/01/30 08:05:06;;;;;;;;;;;0.90;66.70;;;;;;5073768;28;19915;-19
2022/01/30 08:07:32;;;;;;;;;;;1.00;66.10;;;;;;5073691;28;19962;-19
2022/01/30 08:09:59;;;;;;;;;;;1.10;66.20;;;;;;5073494;28;19908;-20
2022/01/30 08:12:25;;;;;;;;;;;1.30;66.10;;;;;;5073493;28;19966;-19
2022/01/30 08:14:50;;;;;;;;;;;1.40;66.00;;;;;;5073416;28;20299;-20
2022/01/30 08:17:21;;;;;;;;;;;1.50;66.60;;;;;;5073353;28;19911;-19
2022/01/30 08:19:49;;;;;;;;;;;1.70;66.40;;;;;;5073409;28;19916;-19
2022/01/30 08:22:14;;;;;;;;;;;1.80;67.60;;;;;;5073030;28;19915;-19
2022/01/30 08:24:40;;;;;;;;;;;1.80;67.10;;;;;;5073251;28;19912;-20
2022/01/30 08:27:06;;;;;;;;;;;1.90;67.20;;;;;;5073232;28;19909;-19
2022/01/30 08:29:32;;;;;;;;;;;2.00;66.70;;;;;;5073164;28;19950;-20
2022/01/30 08:31:58;;;;;;;;;;;2.10;67.90;;;;;;5074375;28;19909;-20
2022/01/30 08:34:25;;;;;;;;;;;2.20;66.80;;;;;;5073006;28;20050;-20
2022/01/30 08:36:51;;;;;;;;;;;2.40;67.30;;;;;;5073444;28;19928;-20
2022/01/30 08:39:17;;;;;;;;;;;2.50;67.00;;;;;;5073175;28;20250;-20
2022/01/30 08:41:43;;;;;;;;;;;2.70;67.40;;;;;;5071907;28;19910;-20
2022/01/30 08:44:09;;;;;;;;;;;2.90;67.00;;;;;;5073048;28;20308;-20
2022/01/30 08:46:34;;;;;;;;;;;3.10;66.80;;;;;;5073087;28;20353;-20
2022/01/30 08:49:00;;;;;;;;;;;3.30;67.30;;;;;;5073404;28;20371;-20
2022/01/30 08:51:26;;;;;;;;;;;3.50;67.10;;;;;;5072913;28;19904;-20
2022/01/30 08:53:52;;;;;;;;;;;3.70;65.80;;;;;;5073358;28;19999;-20
2022/01/30 08:56:21;;;;;;;;;;;3.90;65.60;;;;;;5073457;28;19927;-21
2022/01/30 08:58:48;;;;;;;;;;;4.10;65.00;;;;;;5073263;28;19904;-21
2022/01/30 09:01:14;;;;;;;;;;;4.30;65.50;;;;;;5074291;28;19904;-21
2022/01/30 09:03:40;;;;;;;;;;;4.50;65.60;;;;;;5077007;28;19908;-21
2022/01/30 09:06:06;;;;;;;;;;;4.70;64.70;;;;;;5076705;28;19954;-21
2022/01/30 09:08:31;;;;;;;;;;;4.80;64.50;;;;;;5076700;28;19908;-21
2022/01/30 09:10:58;;;;;;;;;;;5.00;63.20;;;;;;5076561;28;20060;-20
2022/01/30 09:13:24;;;;;;;;;;;5.20;63.00;;;;;;5076477;28;19904;-21
2022/01/30 09:15:56;;;;;;;;;;;5.40;63.30;;;;;;5076480;28;20383;-21
2022/01/30 09:18:23;;;;;;;;;;;5.70;62.20;;;;;;5076255;28;20322;-21
2022/01/30 09:20:49;;;;;;;;;;;5.90;61.90;;;;;;5076116;28;19916;-21
2022/01/30 09:23:14;;;;;;;;;;;6.10;61.50;;;;;;5076467;28;19908;-21
2022/01/30 09:25:41;;;;;;;;;;;6.30;61.20;;;;;;5076419;28;20380;-21
2022/01/30 09:28:07;;;;;;;;;;;6.60;60.90;;;;;;5076335;28;20349;-21
2022/01/30 09:30:33;;;;;;;;;;;6.80;60.00;;;;;;5076354;28;19911;-21
2022/01/30 09:32:59;;;;;;;;;;;7.00;59.80;;;;;;5076113;28;19908;-21
2022/01/30 09:35:25;;;;;;;;;;;7.30;59.30;;;;;;5076482;28;19904;-21
2022/01/30 09:37:51;;;;;;;;;;;7.50;58.60;;;;;;5076070;28;20012;-21
2022/01/30 09:40:18;;;;;;;;;;;7.70;58.60;;;;;;5075894;28;20006;-21
2022/01/30 09:42:45;;;;;;;;;;;7.90;55.90;;;;;;5076319;28;19927;-21
2022/01/30 09:45:13;;;;;;;;;;;8.10;56.30;;;;;;5076213;28;19908;-21
2022/01/30 09:47:40;;;;;;;;;;;8.40;56.50;;;;;;5075912;28;20290;-21
2022/01/30 09:50:07;;;;;;;;;;;8.60;56.30;;;;;;5075914;28;19912;-21
2022/01/30 09:52:32;;;;;;;;;;;8.80;55.60;;;;;;5075807;28;19905;-21
2022/01/30 09:54:58;;;;;;;;;;;9.00;55.30;;;;;;5076188;28;20300;-21
2022/01/30 09:57:24;;;;;;;;;;;9.30;55.20;;;;;;5076077;28;19950;-21
2022/01/30 09:59:50;;;;;;;;;;;9.50;54.70;;;;;;5075801;28;19904;-21
2022/01/30 10:02:16;;;;;;;;;;;9.70;52.80;;;;;;5075765;28;19904;-21
2022/01/30 10:04:42;;;;;;;;;;;9.90;52.90;;;;;;5075814;28;20372;-21
2022/01/30 10:07:14;;;;;;;;;;;10.00;52.50;;;;;;5075453;28;19947;-21
2022/01/30 10:09:49;;;;;;;;;;;10.20;52.90;;;;;;5075537;28;20351;-21
2022/01/30 10:12:19;;;;;;;;;;;10.40;51.60;;;;;;5074175;28;20265;-22
2022/01/30 10:15:00;;;;;;;;;;;10.60;53.10;;;;;;5075482;28;20336;-21
2022/01/30 10:17:39;;;;;;;;;;;10.80;51.60;;;;;;5075671;28;19908;-21
2022/01/30 10:20:06;;;;;;;;;;;11.00;51.50;;;;;;5075489;28;19916;-21
2022/01/30 10:22:33;;;;;;;;;;;11.20;50.20;;;;;;5074995;28;19931;-21
2022/01/30 10:24:59;;;;;;;;;;;11.40;50.90;;;;;;5075117;28;20420;-21
2022/01/30 10:27:26;;;;;;;;;;;11.50;49.90;;;;;;5073937;28;19999;-21
2022/01/30 10:30:00;;;;;;;;;;;11.70;51.70;;;;;;5075215;28;20426;-21
2022/01/30 10:32:26;;;;;;;;;;;11.90;48.40;;;;;;5075696;28;19911;-21
2022/01/30 10:35:06;;;;;;;;;;;12.10;50.40;;;;;;5075616;28;19904;-21
2022/01/30 10:37:32;;;;;;;;;;;12.20;49.20;;;;;;5074863;28;19904;-21
2022/01/30 10:40:04;;;;;;;;;;;12.30;48.50;;;;;;5075083;28;20319;-21
2022/01/30 10:42:31;;;;;;;;;;;12.50;47.80;;;;;;5074600;28;20360;-21
2022/01/30 10:44:56;;;;;;;;;;;12.70;50.90;;;;;;5074778;28;19909;-21
2022/01/30 10:47:23;;;;;;;;;;;12.90;50.50;;;;;;5074734;28;19977;-21
2022/01/30 10:49:49;;;;;;;;;;;13.10;49.50;;;;;;5074687;28;19904;-21
2022/01/30 10:52:15;;;;;;;;;;;13.40;51.10;;;;;;5074646;28;19906;-21
2022/01/30 10:54:41;;;;;;;;;;;13.60;50.10;;;;;;5075081;28;20399;-21
2022/01/30 10:57:09;;;;;;;;;;;13.90;46.20;;;;;;5074465;28;19904;-21
2022/01/30 10:59:41;;;;;;;;;;;14.00;47.30;;;;;;5073209;28;19949;-21
2022/01/30 11:02:12;;;;;;;;;;;14.20;48.40;;;;;;5074823;28;19904;-21
2022/01/30 11:04:38;;;;;;;;;;;14.40;47.90;;;;;;5074614;28;19908;-21
2022/01/30 11:07:04;;;;;;;;;;;14.60;48.60;;;;;;5074560;28;20286;-21
2022/01/30 11:09:35;;;;;;;;;;;14.90;46.80;;;;;;5074923;28;19904;-21
2022/01/30 11:12:07;;;;;;;;;;;15.00;47.70;;;;;;5074588;28;20344;-21
2022/01/30 11:14:40;;;;;;;;;;;15.30;43.90;;;;;;5074427;28;20003;-21
2022/01/30 11:17:08;;;;;;;;;;;15.40;43.00;;;;;;5074215;28;19916;-20
2022/01/30 11:19:37;;;;;;;;;;;15.60;43.20;;;;;;5074132;28;20380;-21
2022/01/30 11:22:05;;;;;;;;;;;15.80;42.10;;;;;;5074011;28;19905;-21
2022/01/30 11:24:33;;;;;;;;;;;15.90;43.90;;;;;;5073389;28;19913;-21
2022/01/30 11:27:00;;;;;;;;;;;16.20;46.00;;;;;;5074313;28;19915;-21
2022/01/30 11:29:27;;;;;;;;;;;16.30;46.70;;;;;;5074215;28;19904;-21
2022/01/30 11:31:53;;;;;;;;;;;16.50;43.40;;;;;;5074225;28;19905;-21
2022/01/30 11:34:19;;;;;;;;;;;16.70;46.30;;;;;;5073665;28;20482;-21
2022/01/30 11:36:47;;;;;;;;;;;16.90;45.70;;;;;;5073740;28;19904;-21
2022/01/30 11:39:15;;;;;;;;;;;17.10;41.10;;;;;;5074316;28;19952;-21
2022/01/30 11:41:41;;;;;;;;;;;17.30;42.20;;;;;;5074095;28;19916;-21
2022/01/30 11:44:18;;;;;;;;;;;17.50;41.80;;;;;;5074024;28;19908;-21
2022/01/30 11:46:44;;;;;;;;;;;17.80;39.10;;;;;;5074031;28;20279;-21
2022/01/30 11:49:11;;;;;;;;;;;18.10;39.80;;;;;;5074004;28;19905;-21
2022/01/30 11:51:49;;;;;;;;;;;18.40;42.50;;;;;;5073581;28;20413;-21
2022/01/30 11:54:47;;;;;;;;;;;18.70;44.90;;;;;;5073523;28;19904;-22
2022/01/30 11:57:21;;;;;;;;;;;19.00;40.00;;;;;;5031579;28;19909;-21
2022/01/30 11:59:48;;;;;;;;;;;19.40;40.90;;;;;;5031665;28;19947;-20
2022/01/30 12:02:23;;;;;;;;;;;19.70;39.20;;;;;;5031398;28;20024;-21
2022/01/30 12:04:56;;;;;;;;;;;19.90;40.70;;;;;;5031513;28;20024;-21
2022/01/30 12:07:35;;;;;;;;;;;20.30;41.00;;;;;;5031665;28;19909;-21
2022/01/30 12:10:15;;;;;;;;;;;20.50;38.20;;;;;;5031414;28;19909;-21
2022/01/30 12:12:58;;;;;;;;;;;20.80;36.20;;;;;;5031380;28;20379;-21
2022/01/30 12:15:36;;;;;;;;;;;21.10;37.30;;;;;;5031370;28;19980;-21
2022/01/30 12:18:03;;;;;;;;;;;21.40;38.00;;;;;;5031560;28;20021;-21
2022/01/30 12:20:31;;;;;;;;;;;21.70;37.20;;;;;;5019338;28;19952;-21
2022/01/30 12:22:57;;;;;;;;;;;21.90;35.40;;;;;;5011808;28;20358;-21
2022/01/30 12:25:25;;;;;;;;;;;22.20;37.30;;;;;;5011548;28;19916;-21
2022/01/30 12:27:54;;;;;;;;;;;22.40;35.50;;;;;;5011562;28;19909;-21
2022/01/30 12:30:32;;;;;;;;;;;22.70;33.50;;;;;;5011344;28;19906;-21
2022/01/30 12:32:59;;;;;;;;;;;22.90;34.30;;;;;;5017213;28;19905;-21
2022/01/30 12:35:25;;;;;;;;;;;23.00;32.40;;;;;;5033375;28;19905;-21
2022/01/30 12:37:50;;;;;;;;;;;23.20;34.00;;;;;;5037324;28;19905;-20
2022/01/30 12:40:17;;;;;;;;;;;23.30;33.80;;;;;;5037089;28;19912;-21
2022/01/30 12:42:44;;;;;;;;;;;23.40;34.00;;;;;;5037122;28;19905;-20
2022/01/30 12:45:11;;;;;;;;;;;23.60;33.80;;;;;;5037055;28;20426;-21
2022/01/30 12:47:47;;;;;;;;;;;23.70;33.60;;;;;;5037330;28;19916;-21
2022/01/30 12:50:14;;;;;;;;;;;23.80;33.00;;;;;;5036825;28;20378;-22
2022/01/30 12:52:40;;;;;;;;;;;23.70;30.30;;;;;;5036874;28;20384;-21
2022/01/30 12:55:10;;;;;;;;;;;23.60;33.50;;;;;;5037272;28;19959;-21
2022/01/30 12:57:38;;;;;;;;;;;23.40;31.10;;;;;;5036961;28;19905;-21
2022/01/30 13:00:05;;;;;;;;;;;23.50;32.00;;;;;;5036970;28;19912;-21
2022/01/30 13:02:33;;;;;;;;;;;23.60;32.50;;;;;;5036651;28;19996;-21
2022/01/30 13:05:00;;;;;;;;;;;23.80;32.50;;;;;;5037146;28;19932;-21
2022/01/30 13:07:26;;;;;;;;;;;23.90;32.30;;;;;;5036715;28;19913;-21
2022/01/30 13:10:09;;;;;;;;;;;24.10;32.90;;;;;;5037301;28;19912;-20
2022/01/30 13:12:35;;;;;;;;;;;24.30;35.00;;;;;;5036457;28;19912;-21
2022/01/30 13:15:08;;;;;;;;;;;24.40;30.30;;;;;;5036828;28;19988;-20
2022/01/30 13:17:34;;;;;;;;;;;24.60;30.90;;;;;;5037218;28;19909;-21
2022/01/30 13:20:00;;;;;;;;;;;24.70;30.20;;;;;;5052718;28;20430;-21
2022/01/30 13:22:33;;;;;;;;;;;24.80;29.40;;;;;;5076357;28;19904;-21
2022/01/30 13:25:00;;;;;;;;;;;24.90;29.50;;;;;;5076274;28;20369;-21
2022/01/30 13:27:26;;;;;;;;;;;25.00;28.80;;;;;;5075100;28;19916;-21
2022/01/30 13:29:55;;;;;;;;;;;25.10;31.50;;;;;;5075066;28;19905;-21
2022/01/30 13:32:22;;;;;;;;;;;25.10;29.70;;;;;;5076008;28;19904;-21
2022/01/30 13:34:49;;;;;;;;;;;25.10;31.30;;;;;;5076168;28;20003;-21
2022/01/30 13:37:16;;;;;;;;;;;25.10;31.80;;;;;;5076312;28;19904;-21
2022/01/30 13:45:07;;;;;;;;;;;24.60;29.00;;;;;;5076737;28;20448;-21
2022/01/30 13:47:34;;;;;;;;;;;24.40;29.00;;;;;;5076003;28;19969;-21
2022/01/30 13:50:00;;;;;;;;;;;24.00;30.40;;;;;;5076248;28;19999;-21
2022/01/30 13:52:30;;;;;;;;;;;23.90;28.70;;;;;;5075732;28;19932;-21
2022/01/30 13:54:57;;;;;;;;;;;23.70;30.90;;;;;;5076060;28;19908;-21
2022/01/30 13:57:28;;;;;;;;;;;23.50;31.20;;;;;;5076144;28;19946;-21
2022/01/30 14:00:03;;;;;;;;;;;23.50;30.40;;;;;;5075908;28;19999;-21
2022/01/30 14:02:28;;;;;;;;;;;23.70;30.80;;;;;;5075477;28;19962;-21
2022/01/30 14:04:54;;;;;;;;;;;23.90;30.20;;;;;;5075861;28;19908;-21
2022/01/30 14:07:21;;;;;;;;;;;23.90;30.60;;;;;;5075497;28;19912;-19
2022/01/30 14:09:51;;;;;;;;;;;24.00;28.20;;;;;;5074313;28;20328;-20
2022/01/30 14:12:17;;;;;;;;;;;23.90;28.50;;;;;;5075555;28;19993;-19
2022/01/30 14:14:59;;;;;;;;;;;23.90;29.20;;;;;;5074695;28;20352;-19
2022/01/30 14:17:25;;;;;;;;;;;23.90;29.40;;;;;;5075416;28;19911;-19
2022/01/30 14:20:01;;;;;;;;;;;23.90;30.10;;;;;;5075210;28;20002;-20
2022/01/30 14:22:34;;;;;;;;;;;23.90;29.40;;;;;;5075286;28;19904;-19
2022/01/30 14:25:03;;;;;;;;;;;24.00;30.50;;;;;;5075496;28;19962;-19
2022/01/30 14:27:33;;;;;;;;;;;23.90;31.70;;;;;;5075538;28;20022;-20
2022/01/30 14:30:03;;;;;;;;;;;24.00;30.40;;;;;;5075387;28;20420;-20
2022/01/30 14:32:34;;;;;;;;;;;24.10;32.20;;;;;;5074918;28;19905;-19
2022/01/30 14:35:02;;;;;;;;;;;24.10;31.20;;;;;;5075132;28;19915;-19
2022/01/30 14:37:28;;;;;;;;;;;24.10;30.40;;;;;;5073605;28;19911;-19
2022/01/30 14:39:58;;;;;;;;;;;24.10;30.00;;;;;;5075259;28;19995;-19
2022/01/30 14:42:24;;;;;;;;;;;24.10;30.20;;;;;;5074655;28;20357;-20
2022/01/30 14:44:50;;;;;;;;;;;24.00;32.30;;;;;;5075014;28;19951;-20
2022/01/30 14:47:16;;;;;;;;;;;24.00;30.60;;;;;;5075084;28;19908;-19
2022/01/30 14:49:43;;;;;;;;;;;24.00;31.00;;;;;;5074986;28;19904;-19
2022/01/30 14:52:09;;;;;;;;;;;24.00;29.30;;;;;;5074909;28;19905;-20
2022/01/30 14:54:35;;;;;;;;;;;23.90;32.40;;;;;;5074394;28;20438;-20
2022/01/30 14:57:03;;;;;;;;;;;23.90;30.50;;;;;;5074872;28;19954;-20
2022/01/30 14:59:29;;;;;;;;;;;23.80;29.60;;;;;;5073852;28;20377;-19
2022/01/30 15:01:56;;;;;;;;;;;23.70;29.70;;;;;;5074496;28;19957;-20
2022/01/30 15:04:22;;;;;;;;;;;23.50;30.00;;;;;;5074238;28;20379;-20
2022/01/30 15:06:48;;;;;;;;;;;23.40;30.40;;;;;;5074664;28;19908;-20
2022/01/30 15:09:13;;;;;;;;;;;23.30;30.60;;;;;;5074646;28;19965;-19
2022/01/30 15:11:39;;;;;;;;;;;23.00;30.80;;;;;;5074565;28;19904;-20
2022/01/30 15:14:06;;;;;;;;;;;22.70;30.40;;;;;;5074433;28;19905;-19
2022/01/30 15:16:43;;;;;;;;;;;22.40;31.00;;;;;;5074020;28;19909;-20